DAL2420 KATL-KJFK
Flight info
| Callsign | DAL2420 |
|---|---|
| Flight time | 1h 40m |
| Altitude | 35000 |
| Route | SMKEY2 BOBBD Q71 KONGO Q34 SITTR Q108 SIE CAMRN5 |
| Aircraft | B739/M-SADE2E3GHIJ4RWXZ/LB1 |
Departure
| Time | 2026-05-07 12:40 |
|---|---|
| Airport | Hartsfield Jackson Atlanta International Airport (KATL) |
Arrival
| Time | 2026-05-07 14:20 |
|---|---|
| Airport | John F. Kennedy International Airport (KJFK) |
| Time | Latitude | Longitude | Altitude | Speed | Heading |
|---|---|---|---|---|---|
| 2026-05-07 11:50 | 33.64063 | -84.42874 | 1023 ft | 0 kts | 270° |
| 2026-05-07 12:28 | 33.64063 | -84.42866 | 1023 ft | 2 kts | 270° |
| 2026-05-07 12:29 | 33.64063 | -84.42849 | 1023 ft | 2 kts | 270° |
| 2026-05-07 12:29 | 33.64061 | -84.42831 | 1023 ft | 2 kts | 297° |
| 2026-05-07 12:29 | 33.64052 | -84.42817 | 1023 ft | 2 kts | 320° |
| 2026-05-07 12:29 | 33.64039 | -84.42808 | 1023 ft | 2 kts | 345° |
| 2026-05-07 12:30 | 33.64030 | -84.42806 | 1023 ft | 1 kts | 360° |
| 2026-05-07 12:30 | 33.64024 | -84.42806 | 1023 ft | 0 kts | 1° |
| 2026-05-07 12:32 | 33.64027 | -84.42806 | 1023 ft | 1 kts | 0° |
| 2026-05-07 12:32 | 33.64048 | -84.42806 | 1023 ft | 5 kts | 0° |
| 2026-05-07 12:32 | 33.64097 | -84.42806 | 1023 ft | 8 kts | 360° |
| 2026-05-07 12:33 | 33.64196 | -84.42763 | 1023 ft | 8 kts | 37° |
| 2026-05-07 12:33 | 33.64245 | -84.42736 | 1023 ft | 7 kts | 9° |
| 2026-05-07 12:33 | 33.64306 | -84.42734 | 1023 ft | 10 kts | 0° |
| 2026-05-07 12:34 | 33.64380 | -84.42735 | 1023 ft | 10 kts | 359° |
| 2026-05-07 12:34 | 33.64451 | -84.42725 | 1023 ft | 9 kts | 36° |
| 2026-05-07 12:34 | 33.64468 | -84.42642 | 1022 ft | 13 kts | 90° |
| 2026-05-07 12:34 | 33.64468 | -84.42513 | 1019 ft | 16 kts | 90° |
| 2026-05-07 12:35 | 33.64468 | -84.42371 | 1015 ft | 17 kts | 90° |
| 2026-05-07 12:35 | 33.64485 | -84.42231 | 1014 ft | 15 kts | 63° |
| 2026-05-07 12:35 | 33.64536 | -84.42120 | 1013 ft | 15 kts | 71° |
| 2026-05-07 12:35 | 33.64541 | -84.41986 | 1010 ft | 18 kts | 90° |
| 2026-05-07 12:36 | 33.64541 | -84.41812 | 1008 ft | 21 kts | 90° |
| 2026-05-07 12:36 | 33.64541 | -84.41632 | 1009 ft | 20 kts | 90° |
| 2026-05-07 12:36 | 33.64541 | -84.41470 | 1012 ft | 19 kts | 90° |
| 2026-05-07 12:36 | 33.64541 | -84.41304 | 1015 ft | 18 kts | 91° |
| 2026-05-07 12:37 | 33.64540 | -84.41158 | 1018 ft | 15 kts | 90° |
| 2026-05-07 12:37 | 33.64540 | -84.41034 | 1021 ft | 14 kts | 90° |
| 2026-05-07 12:37 | 33.64540 | -84.40916 | 1024 ft | 12 kts | 90° |
| 2026-05-07 12:37 | 33.64547 | -84.40823 | 1028 ft | 10 kts | 70° |
| 2026-05-07 12:38 | 33.64570 | -84.40745 | 1031 ft | 7 kts | 84° |
| 2026-05-07 12:38 | 33.64570 | -84.40688 | 1033 ft | 7 kts | 90° |
| 2026-05-07 12:38 | 33.64570 | -84.40634 | 1035 ft | 4 kts | 91° |
| 2026-05-07 12:38 | 33.64571 | -84.40600 | 1036 ft | 5 kts | 77° |
| 2026-05-07 12:39 | 33.64594 | -84.40572 | 1036 ft | 5 kts | 19° |
| 2026-05-07 12:39 | 33.64648 | -84.40569 | 1036 ft | 8 kts | 359° |
| 2026-05-07 12:39 | 33.64677 | -84.40611 | 1036 ft | 7 kts | 274° |
| 2026-05-07 12:39 | 33.64678 | -84.40707 | 1032 ft | 21 kts | 270° |
| 2026-05-07 12:40 | 33.64678 | -84.41198 | 1018 ft | 92 kts | 270° |
| 2026-05-07 12:40 | 33.64678 | -84.42213 | 1013 ft | 148 kts | 270° |
| 2026-05-07 12:40 | 33.64666 | -84.43556 | 1375 ft | 164 kts | 270° |
| 2026-05-07 12:40 | 33.64651 | -84.44907 | 2101 ft | 162 kts | 270° |
| 2026-05-07 12:41 | 33.64700 | -84.46225 | 2699 ft | 165 kts | 281° |
| 2026-05-07 12:41 | 33.65164 | -84.47533 | 3120 ft | 178 kts | 300° |
| 2026-05-07 12:41 | 33.65783 | -84.48845 | 3567 ft | 188 kts | 296° |
| 2026-05-07 12:41 | 33.66345 | -84.50292 | 4026 ft | 198 kts | 292° |
| 2026-05-07 12:42 | 33.66921 | -84.51868 | 4422 ft | 213 kts | 292° |
| 2026-05-07 12:42 | 33.67563 | -84.53538 | 4805 ft | 232 kts | 292° |
| 2026-05-07 12:42 | 33.68264 | -84.55338 | 5295 ft | 246 kts | 295° |
| 2026-05-07 12:42 | 33.69287 | -84.57052 | 5898 ft | 262 kts | 313° |
| 2026-05-07 12:43 | 33.70904 | -84.58095 | 6648 ft | 276 kts | 340° |
| 2026-05-07 12:43 | 33.72850 | -84.58279 | 7493 ft | 283 kts | 354° |
| 2026-05-07 12:43 | 33.74833 | -84.58185 | 8253 ft | 286 kts | 356° |
| 2026-05-07 12:43 | 33.76819 | -84.58092 | 8904 ft | 290 kts | 354° |
| 2026-05-07 12:44 | 33.78862 | -84.58067 | 9552 ft | 294 kts | 352° |
| 2026-05-07 12:44 | 33.80913 | -84.57966 | 10225 ft | 303 kts | 359° |
| 2026-05-07 12:44 | 33.83002 | -84.57252 | 10645 ft | 328 kts | 17° |
| 2026-05-07 12:44 | 33.85117 | -84.55915 | 10994 ft | 349 kts | 24° |
| 2026-05-07 12:45 | 33.87250 | -84.54450 | 11316 ft | 365 kts | 23° |
| 2026-05-07 12:45 | 33.89524 | -84.52944 | 11677 ft | 379 kts | 23° |
| 2026-05-07 12:45 | 33.91854 | -84.51411 | 12186 ft | 387 kts | 23° |
| 2026-05-07 12:45 | 33.94237 | -84.49825 | 12795 ft | 393 kts | 23° |
| 2026-05-07 12:46 | 33.96631 | -84.48220 | 13429 ft | 397 kts | 23° |
| 2026-05-07 12:46 | 33.99054 | -84.46586 | 14071 ft | 401 kts | 22° |
| 2026-05-07 12:46 | 34.01478 | -84.44947 | 14691 ft | 405 kts | 23° |
| 2026-05-07 12:46 | 34.03974 | -84.43240 | 15305 ft | 411 kts | 22° |
| 2026-05-07 12:47 | 34.06444 | -84.41546 | 15966 ft | 413 kts | 22° |
| 2026-05-07 12:47 | 34.08956 | -84.39810 | 16631 ft | 415 kts | 22° |
| 2026-05-07 12:47 | 34.11469 | -84.38083 | 17216 ft | 419 kts | 21° |
| 2026-05-07 12:47 | 34.14008 | -84.36346 | 17831 ft | 422 kts | 20° |
| 2026-05-07 12:48 | 34.16587 | -84.34585 | 18404 ft | 425 kts | 20° |
| 2026-05-07 12:48 | 34.19170 | -84.32824 | 18900 ft | 430 kts | 21° |
| 2026-05-07 12:48 | 34.21807 | -84.31029 | 19362 ft | 436 kts | 21° |
| 2026-05-07 12:48 | 34.24457 | -84.29229 | 19946 ft | 438 kts | 20° |
| 2026-05-07 12:49 | 34.27157 | -84.27492 | 20475 ft | 439 kts | 17° |
| 2026-05-07 12:49 | 34.29946 | -84.26078 | 20971 ft | 433 kts | 9° |
| 2026-05-07 12:49 | 34.32823 | -84.25076 | 21413 ft | 431 kts | 4° |
| 2026-05-07 12:49 | 34.35741 | -84.24307 | 21918 ft | 431 kts | 1° |
| 2026-05-07 12:50 | 34.38698 | -84.23636 | 22330 ft | 434 kts | 0° |
| 2026-05-07 12:50 | 34.41685 | -84.22997 | 22759 ft | 438 kts | 0° |
| 2026-05-07 12:50 | 34.44705 | -84.22353 | 23276 ft | 440 kts | 0° |
| 2026-05-07 12:50 | 34.47758 | -84.21688 | 23646 ft | 445 kts | 0° |
| 2026-05-07 12:51 | 34.50835 | -84.21004 | 24095 ft | 449 kts | 0° |
| 2026-05-07 12:51 | 34.53932 | -84.20303 | 24447 ft | 455 kts | 0° |
| 2026-05-07 12:51 | 34.57035 | -84.19590 | 24929 ft | 456 kts | 0° |
| 2026-05-07 12:51 | 34.60203 | -84.18855 | 25285 ft | 462 kts | 0° |
| 2026-05-07 12:52 | 34.63347 | -84.18122 | 25681 ft | 465 kts | 0° |
| 2026-05-07 12:52 | 34.66563 | -84.17368 | 26072 ft | 468 kts | 0° |
| 2026-05-07 12:52 | 34.69781 | -84.16612 | 26397 ft | 473 kts | 0° |
| 2026-05-07 12:52 | 34.72999 | -84.15850 | 26854 ft | 474 kts | 0° |
| 2026-05-07 12:53 | 34.76287 | -84.15073 | 27186 ft | 479 kts | 360° |
| 2026-05-07 12:53 | 34.79576 | -84.14258 | 27556 ft | 483 kts | 1° |
| 2026-05-07 12:53 | 34.82884 | -84.13374 | 27859 ft | 489 kts | 1° |
| 2026-05-07 12:53 | 34.86200 | -84.12450 | 28189 ft | 493 kts | 1° |
| 2026-05-07 12:54 | 34.89550 | -84.11493 | 28675 ft | 492 kts | 1° |
| 2026-05-07 12:54 | 34.92891 | -84.10535 | 28973 ft | 496 kts | 1° |
| 2026-05-07 12:54 | 34.96225 | -84.09583 | 29284 ft | 499 kts | 1° |
| 2026-05-07 12:54 | 34.99641 | -84.08614 | 29643 ft | 502 kts | 1° |
| 2026-05-07 12:55 | 35.03040 | -84.07649 | 30168 ft | 499 kts | 1° |
| 2026-05-07 12:55 | 35.06383 | -84.06699 | 30692 ft | 497 kts | 0° |
| 2026-05-07 12:55 | 35.09757 | -84.05740 | 31285 ft | 492 kts | 0° |
| 2026-05-07 12:55 | 35.13097 | -84.04799 | 31521 ft | 496 kts | 0° |
| 2026-05-07 12:56 | 35.16513 | -84.03844 | 31838 ft | 498 kts | 360° |
| 2026-05-07 12:56 | 35.19898 | -84.02895 | 32392 ft | 493 kts | 359° |
| 2026-05-07 12:56 | 35.23228 | -84.01954 | 32959 ft | 489 kts | 359° |
| 2026-05-07 12:56 | 35.26520 | -84.01025 | 33368 ft | 487 kts | 359° |
| 2026-05-07 12:57 | 35.29870 | -84.00090 | 33554 ft | 491 kts | 359° |
| 2026-05-07 12:57 | 35.33228 | -83.99159 | 33802 ft | 494 kts | 359° |
| 2026-05-07 12:57 | 35.36561 | -83.98228 | 34284 ft | 492 kts | 359° |
| 2026-05-07 12:57 | 35.39892 | -83.97282 | 34831 ft | 486 kts | 359° |
| 2026-05-07 12:58 | 35.43179 | -83.96349 | 34968 ft | 485 kts | 359° |
| 2026-05-07 12:58 | 35.46463 | -83.95427 | 34955 ft | 487 kts | 359° |
| 2026-05-07 12:58 | 35.53047 | -83.93563 | 34956 ft | 482 kts | 358° |
| 2026-05-07 12:59 | 35.59632 | -83.91715 | 34953 ft | 488 kts | 358° |
| 2026-05-07 12:59 | 35.66187 | -83.89859 | 34968 ft | 485 kts | 358° |
| 2026-05-07 13:00 | 35.72780 | -83.87986 | 34983 ft | 482 kts | 358° |
| 2026-05-07 13:00 | 35.79300 | -83.85809 | 34976 ft | 495 kts | 5° |
| 2026-05-07 13:01 | 35.85695 | -83.82346 | 34980 ft | 514 kts | 14° |
| 2026-05-07 13:01 | 35.92016 | -83.78075 | 34978 ft | 519 kts | 18° |
| 2026-05-07 13:02 | 35.98233 | -83.73642 | 34989 ft | 518 kts | 17° |
| 2026-05-07 13:02 | 36.04507 | -83.69202 | 34983 ft | 520 kts | 17° |
| 2026-05-07 13:03 | 36.10799 | -83.64806 | 34980 ft | 520 kts | 17° |
| 2026-05-07 13:03 | 36.17110 | -83.60427 | 34982 ft | 520 kts | 16° |
| 2026-05-07 13:04 | 36.23392 | -83.56080 | 34978 ft | 519 kts | 17° |
| 2026-05-07 13:04 | 36.29743 | -83.51685 | 34979 ft | 521 kts | 16° |
| 2026-05-07 13:05 | 36.36025 | -83.47321 | 34981 ft | 521 kts | 16° |
| 2026-05-07 13:05 | 36.42346 | -83.42928 | 34979 ft | 521 kts | 16° |
| 2026-05-07 13:06 | 36.48646 | -83.38544 | 34987 ft | 524 kts | 16° |
| 2026-05-07 13:06 | 36.54981 | -83.34114 | 34982 ft | 519 kts | 17° |
| 2026-05-07 13:07 | 36.61297 | -83.29703 | 34987 ft | 522 kts | 17° |
| 2026-05-07 13:07 | 36.67655 | -83.25249 | 34994 ft | 524 kts | 17° |
| 2026-05-07 13:08 | 36.73989 | -83.20805 | 34996 ft | 526 kts | 17° |
| 2026-05-07 13:08 | 36.80403 | -83.16296 | 35000 ft | 526 kts | 17° |
| 2026-05-07 13:09 | 36.86747 | -83.11816 | 34995 ft | 526 kts | 17° |
| 2026-05-07 13:09 | 36.93023 | -83.06889 | 34997 ft | 542 kts | 26° |
| 2026-05-07 13:10 | 36.98652 | -83.00455 | 35000 ft | 558 kts | 39° |
| 2026-05-07 13:10 | 37.03713 | -82.92946 | 34997 ft | 566 kts | 45° |
| 2026-05-07 13:11 | 37.08488 | -82.85131 | 34998 ft | 565 kts | 46° |
| 2026-05-07 13:11 | 37.13154 | -82.77228 | 34992 ft | 566 kts | 47° |
| 2026-05-07 13:12 | 37.17764 | -82.69315 | 34992 ft | 566 kts | 47° |
| 2026-05-07 13:12 | 37.22431 | -82.61361 | 34991 ft | 567 kts | 47° |
| 2026-05-07 13:13 | 37.27116 | -82.53419 | 34992 ft | 567 kts | 46° |
| 2026-05-07 13:13 | 37.31839 | -82.45442 | 34986 ft | 565 kts | 46° |
| 2026-05-07 13:14 | 37.36544 | -82.37500 | 34988 ft | 568 kts | 46° |
| 2026-05-07 13:14 | 37.41217 | -82.29591 | 34985 ft | 567 kts | 46° |
| 2026-05-07 13:15 | 37.45912 | -82.21625 | 34979 ft | 569 kts | 48° |
| 2026-05-07 13:15 | 37.50154 | -82.13110 | 34976 ft | 577 kts | 58° |
| 2026-05-07 13:16 | 37.53509 | -82.03918 | 34980 ft | 580 kts | 67° |
| 2026-05-07 13:16 | 37.56213 | -81.94388 | 34982 ft | 581 kts | 70° |
| 2026-05-07 13:17 | 37.58712 | -81.84759 | 34980 ft | 582 kts | 71° |
| 2026-05-07 13:17 | 37.61226 | -81.75053 | 34975 ft | 581 kts | 70° |
| 2026-05-07 13:18 | 37.63776 | -81.65425 | 34974 ft | 582 kts | 69° |
| 2026-05-07 13:18 | 37.66378 | -81.55776 | 34978 ft | 582 kts | 70° |
| 2026-05-07 13:19 | 37.68988 | -81.46134 | 34973 ft | 582 kts | 69° |
| 2026-05-07 13:19 | 37.71594 | -81.36475 | 34976 ft | 581 kts | 70° |
| 2026-05-07 13:20 | 37.74168 | -81.26868 | 34981 ft | 582 kts | 71° |
| 2026-05-07 13:20 | 37.76682 | -81.17128 | 34987 ft | 580 kts | 75° |
| 2026-05-07 13:21 | 37.78441 | -81.07285 | 34986 ft | 579 kts | 83° |
| 2026-05-07 13:21 | 37.79382 | -80.97189 | 34979 ft | 577 kts | 89° |
| 2026-05-07 13:22 | 37.79962 | -80.87070 | 34966 ft | 578 kts | 90° |
| 2026-05-07 13:22 | 37.80490 | -80.77013 | 34956 ft | 577 kts | 89° |
| 2026-05-07 13:23 | 37.81069 | -80.66861 | 34961 ft | 576 kts | 89° |
| 2026-05-07 13:23 | 37.81688 | -80.56787 | 34973 ft | 579 kts | 88° |
| 2026-05-07 13:24 | 37.82325 | -80.46722 | 34972 ft | 576 kts | 89° |
| 2026-05-07 13:24 | 37.82961 | -80.36595 | 34972 ft | 578 kts | 88° |
| 2026-05-07 13:25 | 37.83582 | -80.26508 | 34969 ft | 576 kts | 89° |
| 2026-05-07 13:25 | 37.84193 | -80.16444 | 34957 ft | 577 kts | 89° |
| 2026-05-07 13:26 | 37.84796 | -80.06362 | 34945 ft | 577 kts | 89° |
| 2026-05-07 13:26 | 37.85380 | -79.96272 | 34944 ft | 576 kts | 89° |
| 2026-05-07 13:27 | 37.85961 | -79.86183 | 34946 ft | 576 kts | 89° |
| 2026-05-07 13:27 | 37.86539 | -79.76089 | 34947 ft | 576 kts | 89° |
| 2026-05-07 13:28 | 37.87053 | -79.65992 | 34949 ft | 574 kts | 90° |
| 2026-05-07 13:28 | 37.87394 | -79.55939 | 34945 ft | 574 kts | 91° |
| 2026-05-07 13:29 | 37.87682 | -79.45908 | 34941 ft | 574 kts | 91° |
| 2026-05-07 13:29 | 37.87644 | -79.35911 | 34942 ft | 569 kts | 98° |
| 2026-05-07 13:30 | 37.86644 | -79.26079 | 34944 ft | 557 kts | 109° |
| 2026-05-07 13:30 | 37.84812 | -79.16585 | 34940 ft | 556 kts | 115° |
| 2026-05-07 13:31 | 37.82699 | -79.07206 | 34944 ft | 553 kts | 115° |
| 2026-05-07 13:31 | 37.80579 | -78.97924 | 34945 ft | 553 kts | 115° |
| 2026-05-07 13:32 | 37.78484 | -78.88572 | 34945 ft | 553 kts | 114° |
| 2026-05-07 13:32 | 37.76421 | -78.79211 | 34945 ft | 553 kts | 114° |
| 2026-05-07 13:33 | 37.74380 | -78.69882 | 34946 ft | 551 kts | 113° |
| 2026-05-07 13:33 | 37.72328 | -78.60532 | 34948 ft | 551 kts | 114° |
| 2026-05-07 13:34 | 37.69225 | -78.46481 | 34950 ft | 552 kts | 113° |
| 2026-05-07 13:35 | 37.67169 | -78.37176 | 34950 ft | 551 kts | 113° |
| 2026-05-07 13:35 | 37.65104 | -78.27902 | 34949 ft | 545 kts | 114° |
| 2026-05-07 13:36 | 37.63039 | -78.18678 | 34947 ft | 550 kts | 115° |
| 2026-05-07 13:36 | 37.60950 | -78.09393 | 34946 ft | 549 kts | 114° |
| 2026-05-07 13:37 | 37.58882 | -78.00192 | 34947 ft | 546 kts | 114° |
| 2026-05-07 13:37 | 37.56799 | -77.90994 | 34947 ft | 547 kts | 115° |
| 2026-05-07 13:38 | 37.54733 | -77.81895 | 34952 ft | 546 kts | 115° |
| 2026-05-07 13:38 | 37.52769 | -77.72631 | 34955 ft | 552 kts | 109° |
| 2026-05-07 13:39 | 37.51522 | -77.63023 | 34956 ft | 560 kts | 102° |
| 2026-05-07 13:39 | 37.50726 | -77.53310 | 34961 ft | 559 kts | 99° |
| 2026-05-07 13:40 | 37.50045 | -77.43600 | 34956 ft | 558 kts | 99° |
| 2026-05-07 13:40 | 37.49337 | -77.33915 | 34955 ft | 560 kts | 101° |
| 2026-05-07 13:41 | 37.48574 | -77.24201 | 34959 ft | 556 kts | 102° |
| 2026-05-07 13:41 | 37.47773 | -77.14540 | 34962 ft | 558 kts | 101° |
| 2026-05-07 13:42 | 37.46964 | -77.04890 | 34958 ft | 557 kts | 101° |
| 2026-05-07 13:42 | 37.46395 | -76.95159 | 34958 ft | 562 kts | 94° |
| 2026-05-07 13:43 | 37.46640 | -76.85344 | 34960 ft | 563 kts | 89° |
| 2026-05-07 13:43 | 37.47331 | -76.75510 | 34958 ft | 566 kts | 86° |
| 2026-05-07 13:44 | 37.48115 | -76.65730 | 34959 ft | 563 kts | 85° |
| 2026-05-07 13:44 | 37.48864 | -76.55905 | 34960 ft | 565 kts | 86° |
| 2026-05-07 13:45 | 37.49553 | -76.46115 | 34956 ft | 562 kts | 86° |
| 2026-05-07 13:45 | 37.50189 | -76.36297 | 34955 ft | 562 kts | 88° |
| 2026-05-07 13:46 | 37.50816 | -76.26497 | 34958 ft | 562 kts | 87° |
| 2026-05-07 13:46 | 37.51441 | -76.16677 | 34961 ft | 563 kts | 87° |
| 2026-05-07 13:47 | 37.52076 | -76.06808 | 34958 ft | 563 kts | 87° |
| 2026-05-07 13:47 | 37.53212 | -75.97127 | 34952 ft | 564 kts | 73° |
| 2026-05-07 13:47 | 37.54523 | -75.92468 | 34955 ft | 558 kts | 60° |
| 2026-05-07 13:48 | 37.56424 | -75.88249 | 34959 ft | 551 kts | 48° |
| 2026-05-07 13:48 | 37.58724 | -75.84545 | 34951 ft | 540 kts | 40° |
| 2026-05-07 13:48 | 37.61266 | -75.81027 | 34954 ft | 541 kts | 38° |
| 2026-05-07 13:49 | 37.66889 | -75.74950 | 34956 ft | 520 kts | 22° |
| 2026-05-07 13:49 | 37.72962 | -75.70319 | 34957 ft | 507 kts | 16° |
| 2026-05-07 13:50 | 37.79165 | -75.66042 | 34957 ft | 508 kts | 15° |
| 2026-05-07 13:50 | 37.85356 | -75.61733 | 34956 ft | 513 kts | 17° |
| 2026-05-07 13:51 | 37.91420 | -75.56861 | 34961 ft | 519 kts | 22° |
| 2026-05-07 13:51 | 37.97365 | -75.51573 | 34957 ft | 524 kts | 23° |
| 2026-05-07 13:52 | 38.03289 | -75.46225 | 34952 ft | 521 kts | 23° |
| 2026-05-07 13:52 | 38.09226 | -75.41007 | 34949 ft | 520 kts | 21° |
| 2026-05-07 13:53 | 38.15275 | -75.36018 | 34950 ft | 514 kts | 20° |
| 2026-05-07 13:53 | 38.21416 | -75.31328 | 34950 ft | 509 kts | 14° |
| 2026-05-07 13:54 | 38.27799 | -75.27951 | 34953 ft | 488 kts | 3° |
| 2026-05-07 13:54 | 38.31039 | -75.26789 | 34955 ft | 475 kts | 358° |
| 2026-05-07 13:54 | 38.34248 | -75.25933 | 34956 ft | 471 kts | 355° |
| 2026-05-07 13:55 | 38.40696 | -75.24603 | 34954 ft | 466 kts | 352° |
| 2026-05-07 13:55 | 38.47107 | -75.23370 | 34954 ft | 462 kts | 352° |
| 2026-05-07 13:56 | 38.53539 | -75.22107 | 34954 ft | 469 kts | 352° |
| 2026-05-07 13:56 | 38.59911 | -75.20809 | 34954 ft | 467 kts | 353° |
| 2026-05-07 13:57 | 38.66376 | -75.19404 | 34955 ft | 474 kts | 356° |
| 2026-05-07 13:57 | 38.69621 | -75.18252 | 34953 ft | 493 kts | 6° |
| 2026-05-07 13:57 | 38.72789 | -75.16313 | 34962 ft | 518 kts | 17° |
| 2026-05-07 13:57 | 38.75840 | -75.13773 | 34953 ft | 529 kts | 23° |
| 2026-05-07 13:58 | 38.78816 | -75.10967 | 34950 ft | 533 kts | 26° |
| 2026-05-07 13:58 | 38.84665 | -75.05054 | 34952 ft | 535 kts | 27° |
| 2026-05-07 13:59 | 38.90493 | -74.99094 | 34953 ft | 534 kts | 27° |
| 2026-05-07 13:59 | 38.96359 | -74.93175 | 34582 ft | 535 kts | 26° |
| 2026-05-07 13:59 | 38.99321 | -74.90218 | 34298 ft | 536 kts | 26° |
| 2026-05-07 14:00 | 39.02262 | -74.87296 | 34016 ft | 536 kts | 26° |
| 2026-05-07 14:00 | 39.05248 | -74.84342 | 33691 ft | 540 kts | 26° |
| 2026-05-07 14:00 | 39.08215 | -74.81412 | 32943 ft | 546 kts | 26° |
| 2026-05-07 14:00 | 39.11254 | -74.78391 | 32070 ft | 551 kts | 27° |
| 2026-05-07 14:01 | 39.14207 | -74.75335 | 31188 ft | 557 kts | 30° |
| 2026-05-07 14:01 | 39.17216 | -74.72118 | 30263 ft | 562 kts | 31° |
| 2026-05-07 14:01 | 39.20208 | -74.68848 | 29653 ft | 559 kts | 31° |
| 2026-05-07 14:01 | 39.23129 | -74.65624 | 29071 ft | 555 kts | 32° |
| 2026-05-07 14:02 | 39.26066 | -74.62376 | 28442 ft | 552 kts | 31° |
| 2026-05-07 14:02 | 39.28995 | -74.59141 | 27820 ft | 549 kts | 32° |
| 2026-05-07 14:02 | 39.31885 | -74.55960 | 27194 ft | 546 kts | 32° |
| 2026-05-07 14:02 | 39.34740 | -74.52827 | 26572 ft | 543 kts | 32° |
| 2026-05-07 14:03 | 39.37614 | -74.49680 | 25936 ft | 540 kts | 32° |
| 2026-05-07 14:03 | 39.40483 | -74.46543 | 25313 ft | 536 kts | 32° |
| 2026-05-07 14:03 | 39.43277 | -74.43491 | 24702 ft | 533 kts | 32° |
| 2026-05-07 14:03 | 39.46114 | -74.40394 | 24109 ft | 529 kts | 32° |
| 2026-05-07 14:04 | 39.48924 | -74.37324 | 23494 ft | 525 kts | 32° |
| 2026-05-07 14:04 | 39.51705 | -74.34283 | 22899 ft | 522 kts | 33° |
| 2026-05-07 14:04 | 39.54437 | -74.31293 | 22305 ft | 518 kts | 33° |
| 2026-05-07 14:04 | 39.57164 | -74.28304 | 21707 ft | 514 kts | 34° |
| 2026-05-07 14:05 | 39.59899 | -74.25304 | 21107 ft | 509 kts | 34° |
| 2026-05-07 14:05 | 39.62559 | -74.22382 | 20531 ft | 504 kts | 34° |
| 2026-05-07 14:05 | 39.65214 | -74.19463 | 19949 ft | 499 kts | 34° |
| 2026-05-07 14:05 | 39.67862 | -74.16550 | 19362 ft | 494 kts | 34° |
| 2026-05-07 14:06 | 39.70451 | -74.13702 | 18791 ft | 489 kts | 34° |
| 2026-05-07 14:06 | 39.73043 | -74.10847 | 18210 ft | 484 kts | 34° |
| 2026-05-07 14:06 | 39.75590 | -74.08035 | 17611 ft | 479 kts | 35° |
| 2026-05-07 14:06 | 39.78101 | -74.05260 | 17024 ft | 475 kts | 35° |
| 2026-05-07 14:07 | 39.80602 | -74.02492 | 16444 ft | 469 kts | 34° |
| 2026-05-07 14:07 | 39.83123 | -73.99822 | 15863 ft | 462 kts | 32° |
| 2026-05-07 14:07 | 39.85682 | -73.97463 | 15301 ft | 453 kts | 27° |
| 2026-05-07 14:07 | 39.88383 | -73.95327 | 14734 ft | 445 kts | 24° |
| 2026-05-07 14:08 | 39.91049 | -73.93410 | 14180 ft | 437 kts | 22° |
| 2026-05-07 14:08 | 39.93724 | -73.91569 | 13637 ft | 431 kts | 22° |
| 2026-05-07 14:08 | 39.96359 | -73.89774 | 13097 ft | 425 kts | 22° |
| 2026-05-07 14:08 | 39.98936 | -73.88007 | 12859 ft | 411 kts | 22° |
| 2026-05-07 14:09 | 40.01418 | -73.86282 | 12639 ft | 398 kts | 22° |
| 2026-05-07 14:09 | 40.03809 | -73.84673 | 12428 ft | 384 kts | 20° |
| 2026-05-07 14:09 | 40.06195 | -73.83195 | 12267 ft | 370 kts | 18° |
| 2026-05-07 14:09 | 40.08483 | -73.81837 | 12127 ft | 358 kts | 18° |
| 2026-05-07 14:10 | 40.10735 | -73.80508 | 12002 ft | 345 kts | 17° |
| 2026-05-07 14:10 | 40.12889 | -73.79224 | 11860 ft | 335 kts | 18° |
| 2026-05-07 14:10 | 40.14977 | -73.77968 | 11518 ft | 333 kts | 18° |
| 2026-05-07 14:10 | 40.17079 | -73.76696 | 11159 ft | 331 kts | 18° |
| 2026-05-07 14:11 | 40.19167 | -73.75424 | 10797 ft | 329 kts | 19° |
| 2026-05-07 14:11 | 40.21215 | -73.74169 | 10426 ft | 327 kts | 19° |
| 2026-05-07 14:11 | 40.23271 | -73.72906 | 9997 ft | 326 kts | 19° |
| 2026-05-07 14:11 | 40.25314 | -73.71653 | 9606 ft | 320 kts | 19° |
| 2026-05-07 14:12 | 40.27320 | -73.70422 | 9237 ft | 314 kts | 18° |
| 2026-05-07 14:12 | 40.29278 | -73.69223 | 8789 ft | 312 kts | 18° |
| 2026-05-07 14:12 | 40.31249 | -73.68014 | 8334 ft | 308 kts | 19° |
| 2026-05-07 14:12 | 40.33160 | -73.66840 | 7955 ft | 303 kts | 18° |
| 2026-05-07 14:13 | 40.35038 | -73.65686 | 7586 ft | 297 kts | 18° |
| 2026-05-07 14:13 | 40.36898 | -73.64537 | 7246 ft | 290 kts | 19° |
| 2026-05-07 14:13 | 40.38702 | -73.63422 | 6917 ft | 283 kts | 19° |
| 2026-05-07 14:13 | 40.40446 | -73.62337 | 6650 ft | 275 kts | 18° |
| 2026-05-07 14:14 | 40.42138 | -73.61278 | 6384 ft | 266 kts | 19° |
| 2026-05-07 14:14 | 40.43795 | -73.60249 | 6113 ft | 260 kts | 18° |
| 2026-05-07 14:14 | 40.45402 | -73.59251 | 5841 ft | 253 kts | 19° |
| 2026-05-07 14:14 | 40.46973 | -73.58268 | 5584 ft | 245 kts | 19° |
| 2026-05-07 14:15 | 40.48490 | -73.57321 | 5314 ft | 238 kts | 19° |
| 2026-05-07 14:15 | 40.49968 | -73.56407 | 5020 ft | 232 kts | 19° |
| 2026-05-07 14:15 | 40.51407 | -73.55522 | 4720 ft | 226 kts | 18° |
| 2026-05-07 14:15 | 40.52873 | -73.54917 | 4459 ft | 213 kts | 3° |
| 2026-05-07 14:16 | 40.54278 | -73.55128 | 4185 ft | 199 kts | 333° |
| 2026-05-07 14:16 | 40.55344 | -73.56194 | 3909 ft | 192 kts | 310° |
| 2026-05-07 14:16 | 40.56055 | -73.57653 | 3633 ft | 189 kts | 303° |
| 2026-05-07 14:16 | 40.56743 | -73.59103 | 3370 ft | 185 kts | 302° |
| 2026-05-07 14:17 | 40.57382 | -73.60570 | 3116 ft | 182 kts | 302° |
| 2026-05-07 14:17 | 40.58017 | -73.61991 | 2863 ft | 179 kts | 303° |
| 2026-05-07 14:17 | 40.58663 | -73.63387 | 2607 ft | 176 kts | 304° |
| 2026-05-07 14:17 | 40.59300 | -73.64755 | 2332 ft | 175 kts | 304° |
| 2026-05-07 14:18 | 40.59898 | -73.66135 | 2076 ft | 174 kts | 301° |
| 2026-05-07 14:18 | 40.60498 | -73.67519 | 1768 ft | 169 kts | 304° |
| 2026-05-07 14:18 | 40.61066 | -73.68781 | 1555 ft | 155 kts | 304° |
| 2026-05-07 14:18 | 40.61599 | -73.69918 | 1382 ft | 140 kts | 306° |
| 2026-05-07 14:19 | 40.62121 | -73.71004 | 1111 ft | 138 kts | 305° |
| 2026-05-07 14:19 | 40.62611 | -73.72066 | 871 ft | 137 kts | 304° |
| 2026-05-07 14:19 | 40.63110 | -73.73158 | 641 ft | 139 kts | 304° |
| 2026-05-07 14:19 | 40.63615 | -73.74253 | 405 ft | 140 kts | 303° |
| 2026-05-07 14:20 | 40.64111 | -73.75351 | 196 ft | 139 kts | 303° |
| 2026-05-07 14:20 | 40.64600 | -73.76434 | 37 ft | 136 kts | 303° |
| 2026-05-07 14:20 | 40.65035 | -73.77380 | 21 ft | 87 kts | 302° |
| 2026-05-07 14:20 | 40.65214 | -73.77779 | 21 ft | 18 kts | 299° |
| 2026-05-07 14:21 | 40.65276 | -73.77921 | 21 ft | 18 kts | 301° |
| 2026-05-07 14:21 | 40.65313 | -73.78051 | 21 ft | 13 kts | 274° |
| 2026-05-07 14:21 | 40.65290 | -73.78143 | 21 ft | 8 kts | 204° |
| 2026-05-07 14:21 | 40.65236 | -73.78112 | 21 ft | 10 kts | 124° |
| 2026-05-07 14:22 | 40.65197 | -73.78027 | 21 ft | 10 kts | 120° |
| 2026-05-07 14:22 | 40.65147 | -73.77917 | 21 ft | 16 kts | 120° |
| 2026-05-07 14:22 | 40.65090 | -73.77791 | 21 ft | 15 kts | 121° |
| 2026-05-07 14:22 | 40.65049 | -73.77729 | 21 ft | 5 kts | 168° |
| 2026-05-07 14:23 | 40.65011 | -73.77753 | 21 ft | 7 kts | 210° |
| 2026-05-07 14:23 | 40.64975 | -73.77742 | 21 ft | 6 kts | 117° |
| 2026-05-07 14:23 | 40.64937 | -73.77655 | 21 ft | 15 kts | 120° |
| 2026-05-07 14:23 | 40.64881 | -73.77533 | 21 ft | 15 kts | 120° |
| 2026-05-07 14:24 | 40.64829 | -73.77415 | 21 ft | 15 kts | 121° |
| 2026-05-07 14:24 | 40.64775 | -73.77296 | 21 ft | 14 kts | 120° |
| 2026-05-07 14:24 | 40.64722 | -73.77180 | 21 ft | 14 kts | 122° |
| 2026-05-07 14:24 | 40.64648 | -73.77093 | 21 ft | 14 kts | 165° |
| 2026-05-07 14:25 | 40.64550 | -73.77089 | 21 ft | 14 kts | 181° |
| 2026-05-07 14:25 | 40.64454 | -73.77095 | 21 ft | 13 kts | 192° |
| 2026-05-07 14:25 | 40.64370 | -73.77152 | 21 ft | 13 kts | 210° |
| 2026-05-07 14:25 | 40.64288 | -73.77216 | 21 ft | 15 kts | 210° |
| 2026-05-07 14:26 | 40.64195 | -73.77289 | 21 ft | 15 kts | 211° |
| 2026-05-07 14:26 | 40.64102 | -73.77360 | 21 ft | 15 kts | 210° |
| 2026-05-07 14:26 | 40.64011 | -73.77430 | 21 ft | 15 kts | 210° |
| 2026-05-07 14:26 | 40.63923 | -73.77501 | 21 ft | 14 kts | 211° |
| 2026-05-07 14:27 | 40.63835 | -73.77568 | 21 ft | 14 kts | 210° |
| 2026-05-07 14:27 | 40.63767 | -73.77624 | 21 ft | 6 kts | 219° |
| 2026-05-07 14:27 | 40.63766 | -73.77669 | 21 ft | 5 kts | 305° |
| 2026-05-07 14:27 | 40.63805 | -73.77713 | 21 ft | 8 kts | 328° |
| 2026-05-07 14:28 | 40.63855 | -73.77759 | 21 ft | 8 kts | 324° |
| 2026-05-07 14:28 | 40.63903 | -73.77801 | 21 ft | 6 kts | 326° |
| 2026-05-07 14:28 | 40.63909 | -73.77840 | 21 ft | 4 kts | 240° |
| 2026-05-07 14:28 | 40.63888 | -73.77889 | 21 ft | 8 kts | 239° |
| 2026-05-07 14:29 | 40.63845 | -73.77927 | 21 ft | 7 kts | 177° |
| 2026-05-07 14:29 | 40.63793 | -73.77918 | 21 ft | 7 kts | 172° |
| 2026-05-07 14:29 | 40.63739 | -73.77908 | 21 ft | 8 kts | 173° |
| 2026-05-07 14:29 | 40.63679 | -73.77899 | 21 ft | 8 kts | 173° |
| 2026-05-07 14:30 | 40.63633 | -73.77898 | 21 ft | 3 kts | 213° |
| 2026-05-07 14:30 | 40.63625 | -73.77933 | 21 ft | 3 kts | 264° |
| 2026-05-07 14:30 | 40.63622 | -73.77966 | 21 ft | 3 kts | 263° |
| 2026-05-07 14:30 | 40.63620 | -73.77988 | 21 ft | 1 kts | 258° |
| 2026-05-07 14:31 | 40.63616 | -73.78001 | 21 ft | 1 kts | 252° |
| 2026-05-07 14:31 | 40.63614 | -73.78011 | 21 ft | 0 kts | 258° |
| 2026-05-07 14:31 | 40.63614 | -73.78014 | 21 ft | 0 kts | 259° |